Stations météo

Publicité
Kielder Castle, Grande-Bretagne (99186): Température de l'air & dewpoint: 13.03.2019 05:00:00 - 19.03.2019 05:00:00 (GMT)Kielder Castle, Grande-Bretagne (99186): Température de l'air -20cm & Température de l'air -100cm: 13.03.2019 05:00:00 - 19.03.2019 05:00:00 (GMT)Kielder Castle, Grande-Bretagne (99186): Quantités de précipitations: 13.03.2019 05:00:00 - 19.03.2019 05:00:00 (GMT)
Date & Time tt [°C] td [°C] tt -20cm [°C] tt -100cm [°C] rr [mm]
19.03.2019 05:00:00 4,2 4,1 - - 0,0
19.03.2019 04:00:00 4,1 3,9 - - 0,0
19.03.2019 03:00:00 4,2 4,0 - - 0,0
19.03.2019 02:00:00 4,3 4,1 - - 0,0
19.03.2019 01:00:00 4,4 4,1 - - 0,0
19.03.2019 00:00:00 4,6 4,3 - - 0,0
18.03.2019 23:00:00 4,7 4,1 - - 0,0
18.03.2019 22:00:00 4,8 3,9 - - 0,0
18.03.2019 21:00:00 4,8 3,6 - - 0,0
18.03.2019 20:00:00 5,3 3,6 - - 0,0
18.03.2019 19:00:00 5,7 3,3 - - 0,0
18.03.2019 18:00:00 6,1 3,2 - - 0,0
18.03.2019 17:00:00 6,7 3,5 - - 0,0
18.03.2019 16:00:00 6,7 3,1 - - 0,0
18.03.2019 15:00:00 7,1 3,3 - - 0,0
18.03.2019 14:00:00 7,3 1,6 - - 0,0
18.03.2019 13:00:00 7,6 3,1 - - 0,0
18.03.2019 12:00:00 7,0 1,9 - - 0,0
18.03.2019 11:00:00 6,1 2,1 - - 0,0
18.03.2019 10:00:00 5,3 3,6 - - 0,0
18.03.2019 09:00:00 2,6 2,6 4,9 5,7 0,2
18.03.2019 08:00:00 -0,2 -0,3 - - 0,0
18.03.2019 07:00:00 -1,8 -1,9 - - 0,0
18.03.2019 06:00:00 -2,1 -2,2 - - 0,0
18.03.2019 05:00:00 -2,5 -2,6 - - 0,0
18.03.2019 04:00:00 -2,6 -2,8 - - 0,0
18.03.2019 03:00:00 -2,5 -2,7 - - 0,0
18.03.2019 02:00:00 -2,5 -2,7 - - 0,0
18.03.2019 01:00:00 -2,3 -2,4 - - 0,0
18.03.2019 00:00:00 -2,1 -2,3 - - 0,0
17.03.2019 23:00:00 -1,9 -2,1 - - 0,0
17.03.2019 22:00:00 -1,4 -1,7 - - 0,0
17.03.2019 21:00:00 -0,8 -1,2 - - 0,0
17.03.2019 20:00:00 0,4 -0,4 - - 0,0
17.03.2019 19:00:00 2,1 0,5 - - 0,0
17.03.2019 18:00:00 4,0 1,1 - - 0,2
17.03.2019 17:00:00 6,1 0,3 - - 0,0
17.03.2019 16:00:00 7,4 1,2 - - 0,0
17.03.2019 15:00:00 6,7 1,3 - - 0,0
17.03.2019 14:00:00 6,9 2,3 - - 0,0
17.03.2019 13:00:00 6,4 4,4 - - 0,2
17.03.2019 12:00:00 6,8 1,6 - - 0,0
17.03.2019 11:00:00 5,5 0,7 - - 0,0
17.03.2019 10:00:00 4,2 1,0 - - 0,0
17.03.2019 09:00:00 2,6 0,5 5,0 5,9 0,0
17.03.2019 08:00:00 1,5 -0,1 - - 0,0
17.03.2019 07:00:00 1,4 -1,0 - - 0,0
17.03.2019 06:00:00 1,1 -1,1 - - 0,0
17.03.2019 05:00:00 1,3 -0,7 - - 0,0
17.03.2019 04:00:00 1,7 -0,4 - - 0,0
17.03.2019 03:00:00 1,6 0,2 - - 0,0
17.03.2019 02:00:00 1,5 -0,3 - - 0,0
17.03.2019 01:00:00 1,7 0,1 - - 0,0
17.03.2019 00:00:00 1,3 -0,3 - - 0,0
16.03.2019 23:00:00 1,8 0,1 - - 0,0
16.03.2019 22:00:00 1,2 -0,4 - - 0,0
16.03.2019 21:00:00 1,9 0,1 - - 0,0
16.03.2019 20:00:00 2,1 0,1 - - 0,0
16.03.2019 19:00:00 2,2 0,3 - - 0,0
16.03.2019 18:00:00 3,5 1,1 - - 0,0
16.03.2019 17:00:00 6,3 4,9 - - 0,2
16.03.2019 16:00:00 8,0 7,1 - - 1,0
16.03.2019 15:00:00 8,9 8,1 - - 0,6
16.03.2019 14:00:00 8,8 8,4 - - 1,8
16.03.2019 13:00:00 8,7 8,5 - - 4,0
16.03.2019 12:00:00 7,4 7,4 - - 7,2
16.03.2019 11:00:00 1,0 0,8 - - 6,2
16.03.2019 10:00:00 0,9 0,6 - - 4,8
16.03.2019 09:00:00 0,7 0,3 5,7 5,7 6,2
16.03.2019 08:00:00 0,7 0,4 - - 2,4
16.03.2019 07:00:00 0,3 0,1 - - 0,0
16.03.2019 06:00:00 0,3 -0,1 - - 0,2
16.03.2019 05:00:00 1,1 0,4 - - 1,8
16.03.2019 04:00:00 2,4 1,4 - - 0,4
16.03.2019 03:00:00 2,8 1,3 - - 0,0
16.03.2019 02:00:00 2,3 0,9 - - 0,0
16.03.2019 01:00:00 3,3 0,8 - - 0,0
16.03.2019 00:00:00 3,3 0,3 - - 0,0
15.03.2019 23:00:00 3,2 0,6 - - 0,0
15.03.2019 22:00:00 2,7 0,5 - - 0,0
15.03.2019 21:00:00 2,5 0,6 - - 0,0
15.03.2019 20:00:00 2,3 0,0 - - 0,0
15.03.2019 19:00:00 3,1 -0,1 - - 0,0
15.03.2019 18:00:00 3,9 1,6 - - 0,0
15.03.2019 17:00:00 3,9 1,9 - - 0,6
15.03.2019 16:00:00 6,0 0,7 - - 1,0
15.03.2019 15:00:00 3,7 0,7 - - 0,6
15.03.2019 14:00:00 5,6 1,4 - - 0,0
15.03.2019 13:00:00 6,9 -0,7 - - 0,0
15.03.2019 12:00:00 7,4 0,2 - - 0,0
15.03.2019 11:00:00 6,5 1,6 - - 0,0
15.03.2019 10:00:00 6,1 1,9 - - 0,0
15.03.2019 09:00:00 6,2 2,4 5,9 5,7 0,2
15.03.2019 08:00:00 5,5 3,3 - - 0,0
15.03.2019 07:00:00 6,2 3,1 - - 0,0
15.03.2019 06:00:00 6,8 4,3 - - 0,2
15.03.2019 05:00:00 8,3 7,3 - - 0,2
15.03.2019 04:00:00 7,3 7,1 - - 0,2
15.03.2019 03:00:00 5,7 5,4 - - 0,4
15.03.2019 02:00:00 5,2 4,8 - - 0,4
15.03.2019 01:00:00 5,0 4,2 - - 0,2
15.03.2019 00:00:00 5,0 4,1 - - 0,2
14.03.2019 23:00:00 5,1 4,3 - - 0,6
14.03.2019 22:00:00 5,4 3,3 - - 0,2
14.03.2019 21:00:00 5,3 2,9 - - 0,0
14.03.2019 20:00:00 5,3 2,9 - - 0,2
14.03.2019 19:00:00 5,4 2,1 - - 0,0
14.03.2019 18:00:00 6,2 1,4 - - 0,0
14.03.2019 17:00:00 6,6 2,2 - - 0,0
14.03.2019 16:00:00 7,9 1,3 - - 0,0
14.03.2019 15:00:00 8,2 1,9 - - 0,0
14.03.2019 14:00:00 8,8 1,8 - - 0,0
14.03.2019 13:00:00 8,4 2,3 - - 0,0
14.03.2019 12:00:00 8,4 4,2 - - 0,0
14.03.2019 11:00:00 7,8 3,3 - - 0,0
14.03.2019 10:00:00 7,3 2,9 - - 0,0
14.03.2019 09:00:00 7,1 4,0 5,7 5,7 0,0
14.03.2019 08:00:00 6,1 4,2 - - 0,0
14.03.2019 07:00:00 5,3 3,8 - - 1,0
14.03.2019 06:00:00 6,6 6,1 - - 2,8
14.03.2019 05:00:00 6,4 6,0 - - 1,0
14.03.2019 04:00:00 6,2 5,7 - - 1,2
14.03.2019 03:00:00 6,1 5,7 - - 1,6
14.03.2019 02:00:00 5,9 5,5 - - 1,8
14.03.2019 01:00:00 5,7 5,2 - - 1,4
14.03.2019 00:00:00 5,5 4,9 - - 1,6
13.03.2019 23:00:00 5,3 4,8 - - 1,4
13.03.2019 22:00:00 4,8 4,3 - - 1,0
13.03.2019 21:00:00 4,7 3,7 - - 0,2
13.03.2019 20:00:00 4,7 3,2 - - 0,0
13.03.2019 19:00:00 5,5 1,9 - - 0,0
13.03.2019 18:00:00 5,8 1,8 - - 0,0
13.03.2019 17:00:00 6,9 2,2 - - 0,0
13.03.2019 16:00:00 7,7 2,4 - - 0,0
13.03.2019 15:00:00 8,5 3,5 - - 0,0
13.03.2019 14:00:00 9,5 2,2 - - 0,0
13.03.2019 13:00:00 9,5 1,7 - - 0,0
13.03.2019 12:00:00 8,8 1,7 - - 0,0
13.03.2019 11:00:00 8,5 2,0 - - 0,0
13.03.2019 10:00:00 7,6 2,4 - - 0,0
13.03.2019 09:00:00 6,4 1,9 5,0 5,7 0,0
13.03.2019 08:00:00 5,8 1,4 - - 0,0
13.03.2019 07:00:00 5,2 0,8 - - 0,0
13.03.2019 06:00:00 5,4 1,6 - - 0,0
13.03.2019 05:00:00 5,2 1,1 - - 0,0

tt = Température de l'air
td = dewpoint
tt -20cm = Température de l'air -20cm
tt -100cm = Température de l'air -100cm
rr = Quantités de précipitations

stations d'obs. à proximité